Flight Track Log - Related Links

Times and Time Zones

All times are in EDT time to prevent confusion due to time zone crossing. See the N618JB flight status page for this flight to view local times or setup timezone preferences in your user account.

Time Position Orientation Groundspeed Altitude Reporting Facility
EDT Latitude Longitude Course Direction KTS MPH feet Rate Location/Type
Sun 01:54:04 AM 39.9500 -104.6833 81° East 203 234 7,800  Level Denver TRACON
Sun 01:54:58 AM 40.0167 -104.6833 360° North 243 280 9,200 1,895 Climbing Denver TRACON
Sun 01:55:00 AM 39.8667 -104.1402 90° East  Level FlightAware Approximate
Sun 01:55:58 AM 40.0333 -104.5833 78° East 296 341 11,400  Level Denver TRACON
Sun 01:56:00 AM 39.8667 -103.9643 90° East  Level FlightAware Approximate
Sun 01:57:00 AM 39.8694 -103.7889 72° East  Level FlightAware Approximate
Sun 01:58:00 AM 39.8834 -103.6159 90° East  Level FlightAware Approximate
Sun 01:58:11 AM 39.9889 -104.3461 104° East 328 377 16,000  Level Denver Center
Sun 01:59:00 AM 39.9005 -103.4471 81° East  Level FlightAware Approximate
Sun 01:59:11 AM 39.9678 -104.2158 102° East 372 428 16,900  Level Denver Center
Sun 02:00:12 AM 39.9422 -104.0681 103° East 418 481 18,400 1,587 Climbing Denver Center
Sun 02:01:12 AM 39.9153 -103.9153 103° East 432 497 20,100 1,700 Climbing Denver Center
Sun 02:02:12 AM 39.8917 -103.7572 101° East 445 512 21,800 1,537 Climbing Denver Center
Sun 02:03:13 AM 39.8975 -103.6006 87° East 451 519 23,200 1,289 Climbing Denver Center
Sun 02:04:13 AM 39.9181 -103.4328 81° East 465 535 24,400 1,250 Climbing Denver Center
Sun 02:05:13 AM 39.9364 -103.2603 82° East 476 548 25,700 1,600 Climbing Denver Center
Sun 02:06:13 AM 39.9564 -103.0900 81° East 470 541 27,600 1,537 Climbing Denver Center
Sun 02:07:14 AM 39.9747 -102.9186 82° East 473 544 28,800 1,091 Climbing Denver Center
Sun 02:08:14 AM 39.9936 -102.7447 82° East 481 554 29,800 1,500 Climbing Denver Center
Sun 02:09:14 AM 40.0119 -102.5697 82° East 489 563 31,800 1,884 Climbing Denver Center
Sun 02:10:15 AM 40.0294 -102.4089 82° East 473 544 33,600 1,240 Climbing Denver Center
Sun 02:11:15 AM 40.0494 -102.2242 82° East 465 535 34,300 600 Climbing Denver Center
Sun 02:12:15 AM 40.0644 -102.0586 83° East 477 549 34,800 744 Climbing Denver Center
Sun 02:13:16 AM 40.0819 -101.8908 82° East 488 562 35,800 1,091 Climbing Denver Center
Sun 02:14:16 AM 40.1014 -101.7011 82° East 473 544 37,000 600 Climbing Denver Center
Sun 02:15:16 AM 40.1161 -101.5347 83° East 480 552 37,000 50 Level Denver Center
Sun 02:16:16 AM 40.1331 -101.3647 83° East 492 566 37,100  Climbing Denver Center
Sun 02:17:17 AM 40.1478 -101.1994 83° East 484 557 37,000 -50 Descending Denver Center
Sun 02:18:17 AM 40.1661 -101.0114 83° East 472 543 37,000  Level Denver Center
Sun 02:19:17 AM 40.1803 -100.8519 83° East 466 536 37,000  Level Denver Center
Sun 02:20:18 AM 40.1947 -100.6925 83° East 463 533 37,000  Level Denver Center
Sun 02:21:18 AM 40.2197 -100.5100 80° East 460 529 37,000 50 Level Denver Center
Sun 02:22:18 AM 40.2531 -100.3525 74° East 469 540 37,100 50 Climbing Denver Center
Sun 02:23:18 AM 40.2842 -100.1967 75° East 467 537 37,100 -50 Level Denver Center
Sun 02:24:19 AM 40.3211 -100.0144 75° East 465 535 37,000  Descending Denver Center
Sun 02:25:19 AM 40.3550 -99.8447 75° East 471 542 37,100 50 Climbing Denver Center
Sun 02:26:19 AM 40.3808 -99.7119 76° East 471 542 37,100 -50 Level Denver Center
Sun 02:27:19 AM 40.4200 -99.5133 75° East 470 541 37,000 -50 Descending Denver Center
Sun 02:28:20 AM 40.4525 -99.3478 75° East 470 541 37,000 50 Level Denver Center
Sun 02:29:20 AM 40.4842 -99.1814 76° East 472 543 37,100  Climbing Denver Center
Sun 02:30:15 AM 40.5100 -99.0481 76° East 474 545 37,000 -52 Descending Minneapolis Center
Sun 02:31:15 AM 40.5428 -98.8806 76° East 475 547 37,000  Level Minneapolis Center
Sun 02:32:15 AM 40.5739 -98.7136 76° East 474 545 37,000  Level Minneapolis Center
Sun 02:33:16 AM 40.6044 -98.5469 76° East 473 544 37,000  Level Minneapolis Center
Sun 02:34:16 AM 40.6347 -98.3792 77° East 473 544 37,000  Level Minneapolis Center
Sun 02:35:16 AM 40.6653 -98.2108 76° East 475 547 37,000  Level Minneapolis Center
Sun 02:36:16 AM 40.6967 -98.0433 76° East 474 545 37,000  Level Minneapolis Center
Sun 02:37:16 AM 40.7261 -97.8736 77° East 475 547 37,000  Level Minneapolis Center
Sun 02:38:16 AM 40.7561 -97.7061 77° East 473 544 37,000  Level Minneapolis Center
Sun 02:39:17 AM 40.7867 -97.5378 76° East 473 544 37,000  Level Minneapolis Center
Sun 02:40:17 AM 40.8214 -97.3419 77° East 473 544 37,000  Level Minneapolis Center
Sun 02:41:17 AM 40.8500 -97.1742 77° East 471 542 37,000  Level Minneapolis Center
Sun 02:42:17 AM 40.8786 -97.0047 77° East 472 543 37,000  Level Minneapolis Center
Sun 02:43:17 AM 40.9075 -96.8381 77° East 469 540 37,000  Level Minneapolis Center
Sun 02:44:17 AM 40.9347 -96.6711 78° East 468 539 37,000  Level Minneapolis Center
Sun 02:45:17 AM 40.9569 -96.5019 80° East 468 539 37,000  Level Minneapolis Center
Sun 02:46:18 AM 40.9797 -96.3367 80° East 464 534 37,000  Level Minneapolis Center
Sun 02:47:18 AM 41.0019 -96.1669 80° East 470 541 37,000  Level Minneapolis Center
Sun 02:48:18 AM 41.0247 -96.0003 80° East 467 537 37,000  Level Minneapolis Center
Sun 02:49:18 AM 41.0467 -95.8317 80° East 469 540 37,000  Level Minneapolis Center
Sun 02:50:18 AM 41.0683 -95.6614 80° East 472 543 37,000  Level Minneapolis Center
Sun 02:51:18 AM 41.0897 -95.4897 81° East 475 547 37,000  Level Minneapolis Center
Sun 02:52:19 AM 41.1128 -95.3183 80° East 475 547 37,000  Level Minneapolis Center
Sun 02:53:19 AM 41.1333 -95.1453 81° East 478 550 37,000  Level Minneapolis Center
Sun 02:54:19 AM 41.1558 -94.9731 80° East 476 548 37,000  Level Minneapolis Center
Sun 02:55:19 AM 41.1767 -94.7981 81° East 480 552 37,000  Level Minneapolis Center
Sun 02:56:19 AM 41.1975 -94.6222 81° East 483 556 37,000  Level Minneapolis Center
Sun 02:57:19 AM 41.2289 -94.4464 77° East 485 558 37,000  Level Minneapolis Center
Sun 02:58:20 AM 41.2594 -94.2697 77° East 491 565 37,000  Level Minneapolis Center
Sun 02:59:20 AM 41.2864 -94.1061 78° East 493 567 37,000  Level Minneapolis Center
Sun 03:00:20 AM 41.3158 -93.9294 77° East 493 567 37,000  Level Minneapolis Center
Sun 03:01:20 AM 41.3447 -93.7547 78° East 489 563 37,000  Level Minneapolis Center
Sun 03:02:20 AM 41.3783 -93.5436 78° East 489 563 37,000  Level Minneapolis Center
Sun 03:03:21 AM 41.4064 -93.3675 78° East 488 562 37,000  Level Minneapolis Center
Sun 03:04:21 AM 41.4344 -93.1892 78° East 490 564 37,000  Level Minneapolis Center
Sun 03:05:21 AM 41.4622 -93.0119 78° East 491 565 37,000  Level Minneapolis Center
Sun 03:06:21 AM 41.4894 -92.8350 78° East 491 565 37,000  Level Minneapolis Center
Sun 03:07:21 AM 41.5167 -92.6578 78° East 490 564 37,000  Level Minneapolis Center
Sun 03:08:04 AM 41.5328 -92.5536 78° East 491 565 37,000  Level Chicago Center
Sun 03:09:04 AM 41.5581 -92.3744 79° East 493 567 37,000  Level Chicago Center
Sun 03:10:04 AM 41.5839 -92.1969 79° East 493 567 37,000  Level Chicago Center
Sun 03:11:04 AM 41.6108 -92.0192 78° East 494 568 37,000  Level Chicago Center
Sun 03:12:04 AM 41.6419 -91.8033 79° East 497 572 37,000  Level Chicago Center
Sun 03:13:05 AM 41.6669 -91.6250 79° East 495 570 37,000  Level Chicago Center
Sun 03:14:05 AM 41.6928 -91.4447 79° East 498 573 37,000  Level Chicago Center
Sun 03:15:05 AM 41.7172 -91.2667 80° East 493 567 37,000  Level Chicago Center
Sun 03:16:05 AM 41.7414 -91.0869 80° East 495 570 37,000  Level Chicago Center
Sun 03:17:05 AM 41.7656 -90.9072 80° East 497 572 37,000  Level Chicago Center
Sun 03:18:05 AM 41.7906 -90.7289 79° East 495 570 37,000  Level Chicago Center
Sun 03:19:05 AM 41.8128 -90.5497 80° East 494 568 37,000  Level Chicago Center
Sun 03:20:06 AM 41.8364 -90.3689 80° East 496 571 37,000  Level Chicago Center
Sun 03:21:06 AM 41.8594 -90.1881 80° East 497 572 37,000  Level Chicago Center
Sun 03:22:06 AM 41.8836 -90.0036 80° East 503 579 37,000  Level Chicago Center
Sun 03:23:06 AM 41.9039 -89.8331 81° East 497 572 37,000  Level Chicago Center
Sun 03:24:06 AM 41.9269 -89.6497 80° East 500 575 37,000  Level Chicago Center
Sun 03:25:06 AM 41.9508 -89.4642 80° East 505 581 37,000  Level Chicago Center
Sun 03:26:06 AM 41.9764 -89.2433 81° East 500 575 37,000  Level Chicago Center
Sun 03:27:07 AM 41.9975 -89.0592 81° East 498 573 37,000  Level Chicago Center
Sun 03:28:07 AM 42.0197 -88.8733 81° East 502 578 37,000  Level Chicago Center
Sun 03:29:07 AM 42.0411 -88.6881 81° East 503 579 37,000  Level Chicago Center
Sun 03:30:07 AM 42.0608 -88.5033 82° East 500 575 37,000  Level Chicago Center
Sun 03:31:07 AM 42.0814 -88.3206 81° East 496 571 37,000  Level Chicago Center
Sun 03:32:07 AM 42.1022 -88.1333 81° East 500 575 37,000  Level Chicago Center
Sun 03:33:07 AM 42.1214 -87.9489 82° East 498 573 37,000  Level Chicago Center
Sun 03:34:08 AM 42.1417 -87.7647 81° East 497 572 37,000  Level Chicago Center
Sun 03:35:08 AM 42.1603 -87.5806 82° East 497 572 37,000  Level Chicago Center
Sun 03:36:08 AM 42.1800 -87.3961 82° East 498 573 37,000  Level Chicago Center
Sun 03:37:08 AM 42.1986 -87.2111 82° East 500 575 37,000  Level Chicago Center
Sun 03:38:08 AM 42.2175 -87.0258 82° East 499 574 37,000  Level Chicago Center
Sun 03:39:09 AM 42.2367 -86.8408 82° East 500 575 37,000  Level Chicago Center
Sun 03:40:09 AM 42.2522 -86.6594 83° East 505 581 37,000  Level Chicago Center
Sun 03:41:09 AM 42.2689 -86.4981 82° East 510 587 37,000  Level Chicago Center
Sun 03:42:09 AM 42.2856 -86.3114 83° East 503 579 37,000  Level Chicago Center
Sun 03:43:09 AM 42.3050 -86.0978 83° East 508 585 37,000  Level Chicago Center
Sun 03:44:10 AM 42.3217 -85.9108 83° East 507 583 37,000  Level Chicago Center
Sun 03:45:10 AM 42.3389 -85.7222 83° East 508 585 37,000  Level Chicago Center
Sun 03:46:10 AM 42.3542 -85.5331 84° East 510 587 37,000  Level Chicago Center
Sun 03:47:10 AM 42.3703 -85.3431 83° East 513 590 37,000  Level Chicago Center
Sun 03:48:10 AM 42.3867 -85.1519 83° East 514 592 37,000  Level Chicago Center
Sun 03:49:11 AM 42.4014 -84.9617 84° East 512 589 37,000  Level Chicago Center
Sun 03:50:11 AM 42.4181 -84.7708 83° East 514 592 37,000  Level Chicago Center
Sun 03:51:11 AM 42.4322 -84.5800 84° East 513 590 37,000  Level Chicago Center
Sun 03:52:11 AM 42.4467 -84.3872 84° East 516 594 37,000  Level Chicago Center
Sun 03:53:11 AM 42.4606 -84.1944 84° East 516 594 37,000  Level Chicago Center
Sun 03:54:12 AM 42.4747 -84.0014 84° East 518 596 37,000  Level Chicago Center
Sun 03:55:11 AM 42.4886 -83.7875 85° East 517 595 37,000  Level Cleveland Center
Sun 03:56:11 AM 42.5042 -83.5942 84° East 517 595 37,000  Level Cleveland Center
Sun 03:57:11 AM 42.5147 -83.4228 85° East 517 595 37,000  Level Cleveland Center
Sun 03:58:11 AM 42.5256 -83.2286 86° East 517 595 37,000  Level Cleveland Center
Sun 03:59:11 AM 42.5383 -83.0347 85° East 517 595 37,000  Level Cleveland Center
Sun 04:00:11 AM 42.5506 -82.8436 85° East 517 595 37,000  Level Cleveland Center
Sun 04:01:11 AM 42.5625 -82.6494 85° East 517 595 37,000  Level Cleveland Center
Sun 04:02:11 AM 42.5719 -82.4581 86° East 517 595 37,000  Level Cleveland Center
Sun 04:03:11 AM 42.5833 -82.2639 85° East 517 595 37,000  Level Cleveland Center
Sun 04:04:11 AM 42.5944 -82.0722 85° East 517 595 37,000  Level Cleveland Center
Sun 04:05:11 AM 42.6050 -81.8808 86° East 517 595 37,000  Level Cleveland Center
Sun 04:06:11 AM 42.6175 -81.6864 85° East 517 595 37,000  Level Cleveland Center
Sun 04:07:11 AM 42.6275 -81.4750 86° East 517 595 37,000  Level Cleveland Center
Sun 04:08:11 AM 42.6353 -81.2831 87° East 517 595 37,000  Level Cleveland Center
Sun 04:09:11 AM 42.6467 -81.0914 85° East 510 587 37,000  Level Cleveland Center
Sun 04:10:11 AM 42.6536 -80.8967 87° East 510 587 37,000  Level Cleveland Center
Sun 04:11:11 AM 42.6622 -80.6989 87° East 515 593 37,000  Level Cleveland Center
Sun 04:12:11 AM 42.6706 -80.5069 87° East 523 602 37,000  Level Cleveland Center
Sun 04:13:11 AM 42.6786 -80.3150 87° East 517 595 37,000  Level Cleveland Center
Sun 04:14:11 AM 42.6844 -80.1397 87° East 517 595 37,000  Level Cleveland Center
Sun 04:15:11 AM 42.6939 -79.9194 87° East 524 603 37,000  Level Cleveland Center
Sun 04:16:11 AM 42.7008 -79.7272 87° East 517 595 37,000  Level Cleveland Center
Sun 04:17:11 AM 42.7097 -79.5292 86° East 517 595 37,000  Level Cleveland Center
Sun 04:18:11 AM 42.7161 -79.3314 87° East 517 595 37,000  Level Cleveland Center
Sun 04:19:11 AM 42.7200 -79.1306 88° East 517 595 37,000  Level Cleveland Center
Sun 04:20:11 AM 42.7278 -78.9297 87° East 517 595 37,000  Level Cleveland Center
Sun 04:21:11 AM 42.7308 -78.7319 89° East 517 595 37,000  Level Cleveland Center
Sun 04:22:11 AM 42.7358 -78.5308 88° East 517 595 37,000  Level Cleveland Center
Sun 04:23:11 AM 42.7406 -78.3328 88° East 517 595 37,000  Level Cleveland Center
Sun 04:24:11 AM 42.7447 -78.1319 88° East 517 595 37,000  Level Cleveland Center
Sun 04:25:11 AM 42.7467 -77.9311 89° East 522 601 37,000  Level Cleveland Center
Sun 04:26:11 AM 42.7461 -77.7303 90° East 522 601 37,000  Level Cleveland Center
Sun 04:28:00 AM 42.7556 -77.3869 88° East 535 616 37,000  Level Boston Center
Sun 04:29:00 AM 42.7578 -77.1861 89° East 535 616 37,000  Level Boston Center
Sun 04:30:02 AM 42.7600 -76.9825 89° East 535 616 37,000  Level Boston Center
Sun 04:31:03 AM 42.7614 -76.7844 89° East 535 616 37,000  Level Boston Center
Sun 04:32:00 AM 42.7628 -76.5808 89° East 535 616 37,000  Level Boston Center
Sun 04:33:00 AM 42.7656 -76.3831 89° East 535 616 37,000  Level Boston Center
Sun 04:34:00 AM 42.7661 -76.1822 90° East 535 616 37,000  Level Boston Center
Sun 04:35:00 AM 42.7664 -75.9814 90° East 535 616 37,000  Level Boston Center
Sun 04:36:00 AM 42.7667 -75.7578 90° East 535 616 37,000  Level Boston Center
Sun 04:37:00 AM 42.7661 -75.5597 90° East 535 616 37,000  Level Boston Center
Sun 04:38:00 AM 42.7653 -75.3589 90° East 535 616 37,000  Level Boston Center
Sun 04:39:00 AM 42.7639 -75.1553 90° East 535 616 37,000  Level Boston Center
Sun 04:40:02 AM 42.7622 -74.9569 91° East 535 616 37,000  Level Boston Center
Sun 04:41:01 AM 42.7583 -74.7533 91° East 535 616 37,000  Level Boston Center
Sun 04:42:00 AM 42.7581 -74.5525 90° East 535 616 37,000  Level Boston Center
Sun 04:43:00 AM 42.7533 -74.3517 92° East 535 616 37,000  Level Boston Center
Sun 04:44:00 AM 42.7522 -74.1481 90° East 535 616 37,000  Level Boston Center
Sun 04:45:00 AM 42.7467 -73.9469 92° East 535 616 37,000  Level Boston Center
Sun 04:46:01 AM 42.7408 -73.7489 92° East 535 616 37,000 -450 Level Boston Center
Sun 04:47:00 AM 42.7222 -73.5536 97° East 530 610 36,100 -1,261 Descending Boston Center
Sun 04:48:00 AM 42.7011 -73.3497 98° East 536 617 34,500 -2,650 Descending Boston Center
Sun 04:49:00 AM 42.6775 -73.1433 99° East 546 628 30,800 -3,000 Descending Boston Center
Sun 04:50:00 AM 42.6556 -72.9567 99° East 546 628 28,500 -2,430 Descending Boston Center
Sun 04:51:01 AM 42.6333 -72.7617 99° East 537 618 25,900 -2,450 Descending Boston Center
Sun 04:52:00 AM 42.6169 -72.5811 97° East 510 587 23,600 -2,168 Descending Boston Center
Sun 04:53:00 AM 42.5881 -72.4006 102° East 491 565 21,600 -2,262 Descending Boston Center
Sun 04:54:02 AM 42.5647 -72.2203 100° East 463 533 19,000 -2,400 Descending Boston Center
Sun 04:55:00 AM 42.5478 -72.0736 99° East 440 506 16,800 -2,471 Descending Boston Center
Sun 04:56:01 AM 42.5306 -71.8992 98° East 427 491 14,100 -2,300 Descending Boston Center
Sun 04:57:00 AM 42.5172 -71.7583 97° East 427 491 12,200 -1,574 Descending Boston Center
Sun 04:58:03 AM 42.5036 -71.6008 97° East 402 463 10,900 -1,171 Descending Boston Center
Sun 04:58:22 AM 42.5000 -71.5500 95° East 365 420 10,600 -911 Descending KA90
Sun 04:59:22 AM 42.4833 -71.4167 100° East 340 391 9,700 -850 Descending KA90
Sun 05:00:22 AM 42.4833 -71.3000 90° East 332 382 8,900 -800 Descending KA90
Sun 05:01:22 AM 42.4667 -71.1833 101° East 303 349 8,100 -800 Descending KA90
Sun 05:02:22 AM 42.4500 -71.0833 103° East 268 308 7,300 -1,143 Descending KA90
Sun 05:03:28 AM 42.4333 -70.9833 103° East 245 282 5,700 -1,476 Descending KA90
Sun 05:04:28 AM 42.3833 -70.9167 135° Southeast 238 274 4,200 -1,250 Descending KA90
Sun 05:05:28 AM 42.3500 -70.8500 124° Southeast 213 245 3,200 -830 Descending KA90
Sun 05:06:02 AM 42.3350 -70.8364 146° Southeast 210 242 2,900 -1,043 Descending Boston Center
Sun 05:07:00 AM 42.3147 -70.8875 242° Southwest 131 151 1,600 -1,125 Descending Boston Center
Sun 05:07:22 AM 42.3167 -70.9167 275° West 168 193 1,400 -659 Descending KA90
Sun 05:08:22 AM 42.3333 -70.9500 304° West 127 146 700 -418 Descending KA90
Sun 05:10:00 AM 42.3622 -71.0211 299° West 138 159 300 -245 Descending Boston Center

Login

Don't have an account? Register now (free) for customized features, flight alerts, and more!